sensor_id;sensor_type;location;lat;lon;timestamp;pressure;altitude;pressure_sealevel;temperature;humidity
56912;BME280;42800;53.928;27.662;2022-10-16T00:00:46;98721.63;;;10.98;100.00
56912;BME280;42800;53.928;27.662;2022-10-16T00:03:12;98719.81;;;10.72;100.00
56912;BME280;42800;53.928;27.662;2022-10-16T00:05:40;98727.63;;;11.11;100.00
56912;BME280;42800;53.928;27.662;2022-10-16T00:08:07;98715.09;;;11.10;100.00
56912;BME280;42800;53.928;27.662;2022-10-16T00:10:34;98713.50;;;11.09;100.00
56912;BME280;42800;53.928;27.662;2022-10-16T00:13:01;98703.53;;;11.38;100.00
56912;BME280;42800;53.928;27.662;2022-10-16T00:15:28;98714.53;;;10.90;100.00
56912;BME280;42800;53.928;27.662;2022-10-16T00:17:54;98722.09;;;10.63;100.00
56912;BME280;42800;53.928;27.662;2022-10-16T00:20:20;98724.44;;;11.05;100.00
56912;BME280;42800;53.928;27.662;2022-10-16T00:22:46;98718.06;;;10.91;100.00
56912;BME280;42800;53.928;27.662;2022-10-16T00:25:13;98721.25;;;10.96;100.00
56912;BME280;42800;53.928;27.662;2022-10-16T00:27:40;98716.91;;;10.95;100.00
56912;BME280;42800;53.928;27.662;2022-10-16T00:30:07;98725.34;;;10.76;100.00
56912;BME280;42800;53.928;27.662;2022-10-16T00:32:34;98722.59;;;11.17;100.00
56912;BME280;42800;53.928;27.662;2022-10-16T00:35:00;98718.13;;;11.01;100.00
56912;BME280;42800;53.928;27.662;2022-10-16T00:37:26;98732.25;;;10.63;100.00
56912;BME280;42800;53.928;27.662;2022-10-16T00:39:52;98716.09;;;10.50;100.00
56912;BME280;42800;53.928;27.662;2022-10-16T00:42:19;98732.88;;;10.49;100.00
56912;BME280;42800;53.928;27.662;2022-10-16T00:44:49;98742.75;;;10.53;100.00
56912;BME280;42800;53.928;27.662;2022-10-16T00:47:20;98734.16;;;10.58;100.00
56912;BME280;42800;53.928;27.662;2022-10-16T00:49:48;98724.31;;;10.91;100.00
56912;BME280;42800;53.928;27.662;2022-10-16T00:52:16;98723.41;;;10.76;100.00
56912;BME280;42800;53.928;27.662;2022-10-16T00:54:43;98722.22;;;10.77;100.00
56912;BME280;42800;53.928;27.662;2022-10-16T00:57:11;98718.94;;;10.61;100.00
56912;BME280;42800;53.928;27.662;2022-10-16T00:59:40;98730.66;;;10.58;100.00
56912;BME280;42800;53.928;27.662;2022-10-16T01:02:09;98709.56;;;11.06;100.00
56912;BME280;42800;53.928;27.662;2022-10-16T01:04:38;98711.38;;;10.92;100.00
56912;BME280;42800;53.928;27.662;2022-10-16T01:07:10;98712.66;;;10.60;100.00
56912;BME280;42800;53.928;27.662;2022-10-16T01:09:47;98723.56;;;10.53;100.00
56912;BME280;42800;53.928;27.662;2022-10-16T01:12:23;98739.06;;;10.42;100.00
56912;BME280;42800;53.928;27.662;2022-10-16T01:14:54;98747.91;;;10.62;100.00
56912;BME280;42800;53.928;27.662;2022-10-16T01:17:28;98739.53;;;10.48;100.00
56912;BME280;42800;53.928;27.662;2022-10-16T01:20:11;98753.56;;;10.76;100.00
56912;BME280;42800;53.928;27.662;2022-10-16T01:22:59;98743.63;;;10.65;100.00
56912;BME280;42800;53.928;27.662;2022-10-16T01:25:39;98747.59;;;10.67;100.00
56912;BME280;42800;53.928;27.662;2022-10-16T01:28:15;98740.44;;;10.59;100.00
56912;BME280;42800;53.928;27.662;2022-10-16T01:30:44;98749.22;;;10.75;100.00
56912;BME280;42800;53.928;27.662;2022-10-16T01:33:14;98752.34;;;10.36;100.00
56912;BME280;42800;53.928;27.662;2022-10-16T01:35:46;98752.50;;;10.88;100.00
56912;BME280;42800;53.928;27.662;2022-10-16T01:38:17;98753.16;;;10.41;100.00
56912;BME280;42800;53.928;27.662;2022-10-16T01:40:49;98772.69;;;10.39;100.00
56912;BME280;42800;53.928;27.662;2022-10-16T01:43:20;98765.53;;;10.27;100.00
56912;BME280;42800;53.928;27.662;2022-10-16T01:45:48;98757.44;;;10.75;100.00
56912;BME280;42800;53.928;27.662;2022-10-16T01:48:18;98764.34;;;10.28;100.00
56912;BME280;42800;53.928;27.662;2022-10-16T01:50:51;98771.97;;;10.42;100.00
56912;BME280;42800;53.928;27.662;2022-10-16T01:53:18;98786.84;;;10.14;100.00
56912;BME280;42800;53.928;27.662;2022-10-16T01:55:47;98779.59;;;10.26;100.00
56912;BME280;42800;53.928;27.662;2022-10-16T01:58:15;98778.78;;;10.25;100.00
56912;BME280;42800;53.928;27.662;2022-10-16T02:00:44;98794.94;;;10.30;100.00
56912;BME280;42800;53.928;27.662;2022-10-16T02:03:13;98790.34;;;10.42;100.00
56912;BME280;42800;53.928;27.662;2022-10-16T02:05:45;98787.97;;;10.36;100.00
56912;BME280;42800;53.928;27.662;2022-10-16T02:08:12;98813.94;;;10.20;100.00
56912;BME280;42800;53.928;27.662;2022-10-16T02:10:39;98813.56;;;9.95;100.00
56912;BME280;42800;53.928;27.662;2022-10-16T02:13:07;98827.38;;;10.28;100.00
56912;BME280;42800;53.928;27.662;2022-10-16T02:15:34;98823.94;;;10.08;100.00
56912;BME280;42800;53.928;27.662;2022-10-16T02:18:02;98833.69;;;10.06;100.00
56912;BME280;42800;53.928;27.662;2022-10-16T02:20:34;98839.63;;;9.85;100.00
56912;BME280;42800;53.928;27.662;2022-10-16T02:23:03;98871.81;;;10.18;100.00
56912;BME280;42800;53.928;27.662;2022-10-16T02:25:31;98848.63;;;9.85;100.00
56912;BME280;42800;53.928;27.662;2022-10-16T02:28:01;98873.38;;;9.93;100.00
56912;BME280;42800;53.928;27.662;2022-10-16T02:30:33;98907.91;;;9.74;100.00
56912;BME280;42800;53.928;27.662;2022-10-16T02:33:02;98900.66;;;9.85;100.00
56912;BME280;42800;53.928;27.662;2022-10-16T02:35:31;98900.81;;;9.70;100.00
56912;BME280;42800;53.928;27.662;2022-10-16T02:37:58;98912.88;;;9.92;100.00
56912;BME280;42800;53.928;27.662;2022-10-16T02:40:25;98894.63;;;9.76;100.00
56912;BME280;42800;53.928;27.662;2022-10-16T02:42:53;98924.09;;;9.60;100.00
56912;BME280;42800;53.928;27.662;2022-10-16T02:45:20;98951.44;;;9.83;100.00
56912;BME280;42800;53.928;27.662;2022-10-16T02:47:46;98919.88;;;9.89;100.00
56912;BME280;42800;53.928;27.662;2022-10-16T02:50:13;98892.53;;;9.93;100.00
56912;BME280;42800;53.928;27.662;2022-10-16T02:52:40;98920.69;;;9.66;100.00
56912;BME280;42800;53.928;27.662;2022-10-16T02:55:07;98894.81;;;9.64;100.00
56912;BME280;42800;53.928;27.662;2022-10-16T02:57:33;98913.44;;;9.55;100.00
56912;BME280;42800;53.928;27.662;2022-10-16T02:59:59;98944.19;;;9.48;100.00
56912;BME280;42800;53.928;27.662;2022-10-16T03:02:25;98965.50;;;9.58;100.00
56912;BME280;42800;53.928;27.662;2022-10-16T03:04:52;98958.84;;;9.59;100.00
56912;BME280;42800;53.928;27.662;2022-10-16T03:07:19;98970.63;;;9.40;100.00
56912;BME280;42800;53.928;27.662;2022-10-16T03:09:45;98972.28;;;9.45;100.00
56912;BME280;42800;53.928;27.662;2022-10-16T03:12:11;98987.63;;;9.73;100.00
56912;BME280;42800;53.928;27.662;2022-10-16T03:14:37;98938.75;;;9.71;100.00
56912;BME280;42800;53.928;27.662;2022-10-16T03:17:05;98943.84;;;9.50;100.00
56912;BME280;42800;53.928;27.662;2022-10-16T03:19:31;98957.00;;;9.63;100.00
56912;BME280;42800;53.928;27.662;2022-10-16T03:21:57;98955.63;;;9.54;100.00
56912;BME280;42800;53.928;27.662;2022-10-16T03:24:24;98944.50;;;9.66;100.00
56912;BME280;42800;53.928;27.662;2022-10-16T03:26:50;98920.28;;;9.45;100.00
56912;BME280;42800;53.928;27.662;2022-10-16T03:29:17;98986.41;;;9.28;100.00
56912;BME280;42800;53.928;27.662;2022-10-16T03:31:43;99005.50;;;9.43;100.00
56912;BME280;42800;53.928;27.662;2022-10-16T03:34:09;99015.41;;;9.32;100.00
56912;BME280;42800;53.928;27.662;2022-10-16T03:36:35;99014.19;;;9.10;100.00
56912;BME280;42800;53.928;27.662;2022-10-16T03:39:02;99009.41;;;9.46;100.00
56912;BME280;42800;53.928;27.662;2022-10-16T03:41:29;98990.94;;;9.20;100.00
56912;BME280;42800;53.928;27.662;2022-10-16T03:43:55;99032.41;;;9.41;100.00
56912;BME280;42800;53.928;27.662;2022-10-16T03:46:21;98994.41;;;9.17;100.00
56912;BME280;42800;53.928;27.662;2022-10-16T03:48:47;99093.63;;;8.82;100.00
56912;BME280;42800;53.928;27.662;2022-10-16T03:51:14;99133.47;;;8.99;100.00
56912;BME280;42800;53.928;27.662;2022-10-16T03:53:40;99093.56;;;9.14;100.00
56912;BME280;42800;53.928;27.662;2022-10-16T03:56:06;99059.63;;;8.99;100.00
56912;BME280;42800;53.928;27.662;2022-10-16T03:58:33;99094.50;;;8.86;100.00
56912;BME280;42800;53.928;27.662;2022-10-16T04:00:59;99102.59;;;8.83;100.00
56912;BME280;42800;53.928;27.662;2022-10-16T04:03:26;99097.06;;;9.30;100.00
56912;BME280;42800;53.928;27.662;2022-10-16T04:05:52;99041.69;;;9.37;100.00
56912;BME280;42800;53.928;27.662;2022-10-16T04:08:18;99044.13;;;9.42;100.00
56912;BME280;42800;53.928;27.662;2022-10-16T04:10:44;99058.09;;;9.17;100.00
56912;BME280;42800;53.928;27.662;2022-10-16T04:13:11;99090.88;;;8.82;100.00
56912;BME280;42800;53.928;27.662;2022-10-16T04:15:38;99135.53;;;8.70;100.00
56912;BME280;42800;53.928;27.662;2022-10-16T04:18:05;99178.09;;;8.71;100.00
56912;BME280;42800;53.928;27.662;2022-10-16T04:20:32;99200.16;;;8.94;100.00
56912;BME280;42800;53.928;27.662;2022-10-16T04:22:58;99127.81;;;8.92;100.00
56912;BME280;42800;53.928;27.662;2022-10-16T04:25:24;99168.41;;;8.74;100.00
56912;BME280;42800;53.928;27.662;2022-10-16T04:27:52;99135.84;;;9.16;100.00
56912;BME280;42800;53.928;27.662;2022-10-16T04:30:18;99080.88;;;9.06;100.00
56912;BME280;42800;53.928;27.662;2022-10-16T04:32:48;99087.25;;;8.94;100.00
56912;BME280;42800;53.928;27.662;2022-10-16T04:35:15;99133.66;;;8.90;100.00
56912;BME280;42800;53.928;27.662;2022-10-16T04:37:41;99160.47;;;8.53;100.00
56912;BME280;42800;53.928;27.662;2022-10-16T04:40:07;99196.53;;;8.90;100.00
56912;BME280;42800;53.928;27.662;2022-10-16T04:42:34;99184.63;;;8.67;100.00
56912;BME280;42800;53.928;27.662;2022-10-16T04:45:00;99219.56;;;8.45;100.00
56912;BME280;42800;53.928;27.662;2022-10-16T04:47:26;99242.16;;;8.58;100.00
56912;BME280;42800;53.928;27.662;2022-10-16T04:49:53;99278.25;;;8.23;100.00
56912;BME280;42800;53.928;27.662;2022-10-16T04:52:19;99333.09;;;8.31;100.00
56912;BME280;42800;53.928;27.662;2022-10-16T04:54:47;99351.06;;;8.32;100.00
56912;BME280;42800;53.928;27.662;2022-10-16T04:57:13;99342.19;;;8.22;100.00
56912;BME280;42800;53.928;27.662;2022-10-16T04:59:39;99337.53;;;8.23;100.00
56912;BME280;42800;53.928;27.662;2022-10-16T05:02:05;99338.00;;;8.25;100.00
56912;BME280;42800;53.928;27.662;2022-10-16T05:04:31;99331.16;;;8.31;100.00
56912;BME280;42800;53.928;27.662;2022-10-16T05:06:58;99339.50;;;8.10;100.00
56912;BME280;42800;53.928;27.662;2022-10-16T05:09:24;99323.84;;;8.35;100.00
56912;BME280;42800;53.928;27.662;2022-10-16T05:11:51;99310.78;;;8.29;100.00
56912;BME280;42800;53.928;27.662;2022-10-16T05:14:17;99303.28;;;8.25;100.00
56912;BME280;42800;53.928;27.662;2022-10-16T05:16:43;99323.19;;;8.26;100.00
56912;BME280;42800;53.928;27.662;2022-10-16T05:19:10;99348.44;;;8.23;100.00
56912;BME280;42800;53.928;27.662;2022-10-16T05:21:36;99299.94;;;8.32;100.00
56912;BME280;42800;53.928;27.662;2022-10-16T05:24:03;99275.59;;;8.39;100.00
56912;BME280;42800;53.928;27.662;2022-10-16T05:26:29;99301.50;;;8.17;100.00
56912;BME280;42800;53.928;27.662;2022-10-16T05:28:55;99289.13;;;8.48;100.00
56912;BME280;42800;53.928;27.662;2022-10-16T05:31:22;99158.34;;;8.94;100.00
56912;BME280;42800;53.928;27.662;2022-10-16T05:33:48;99035.06;;;9.38;100.00
56912;BME280;42800;53.928;27.662;2022-10-16T05:36:15;98945.13;;;9.79;100.00
56912;BME280;42800;53.928;27.662;2022-10-16T05:38:43;98856.75;;;10.05;100.00
56912;BME280;42800;53.928;27.662;2022-10-16T05:41:10;98820.56;;;10.19;100.00
56912;BME280;42800;53.928;27.662;2022-10-16T05:43:36;98825.03;;;10.27;100.00
56912;BME280;42800;53.928;27.662;2022-10-16T05:46:05;98812.16;;;10.98;100.00
56912;BME280;42800;53.928;27.662;2022-10-16T05:48:32;98854.81;;;10.96;100.00
56912;BME280;42800;53.928;27.662;2022-10-16T05:50:59;98865.50;;;10.71;100.00
56912;BME280;42800;53.928;27.662;2022-10-16T05:53:27;98888.00;;;11.58;100.00
56912;BME280;42800;53.928;27.662;2022-10-16T05:55:53;98932.84;;;12.10;100.00
56912;BME280;42800;53.928;27.662;2022-10-16T05:58:20;98975.44;;;12.38;100.00
56912;BME280;42800;53.928;27.662;2022-10-16T06:00:53;99027.50;;;12.64;100.00
56912;BME280;42800;53.928;27.662;2022-10-16T06:03:19;99000.16;;;11.90;100.00
56912;BME280;42800;53.928;27.662;2022-10-16T06:05:46;99008.81;;;11.92;100.00
56912;BME280;42800;53.928;27.662;2022-10-16T06:08:12;99031.34;;;12.08;100.00
56912;BME280;42800;53.928;27.662;2022-10-16T06:10:38;99069.25;;;12.77;100.00
56912;BME280;42800;53.928;27.662;2022-10-16T06:13:04;99119.84;;;13.21;100.00
56912;BME280;42800;53.928;27.662;2022-10-16T06:15:31;99102.19;;;12.70;100.00
56912;BME280;42800;53.928;27.662;2022-10-16T06:17:57;99121.06;;;12.71;100.00
56912;BME280;42800;53.928;27.662;2022-10-16T06:20:23;99102.66;;;11.97;100.00
56912;BME280;42800;53.928;27.662;2022-10-16T06:22:50;99091.34;;;12.06;100.00
56912;BME280;42800;53.928;27.662;2022-10-16T06:25:16;99064.06;;;11.53;100.00
56912;BME280;42800;53.928;27.662;2022-10-16T06:27:42;99007.06;;;11.13;100.00
56912;BME280;42800;53.928;27.662;2022-10-16T06:30:09;99022.75;;;11.12;100.00
56912;BME280;42800;53.928;27.662;2022-10-16T06:32:36;98993.34;;;10.82;100.00
56912;BME280;42800;53.928;27.662;2022-10-16T06:35:03;99007.38;;;11.34;100.00
56912;BME280;42800;53.928;27.662;2022-10-16T06:37:29;99044.44;;;12.25;100.00
56912;BME280;42800;53.928;27.662;2022-10-16T06:39:55;99117.31;;;12.94;100.00
56912;BME280;42800;53.928;27.662;2022-10-16T06:42:21;99158.56;;;12.90;100.00
56912;BME280;42800;53.928;27.662;2022-10-16T06:44:47;99166.41;;;12.47;100.00
56912;BME280;42800;53.928;27.662;2022-10-16T06:47:14;99178.91;;;12.82;100.00
56912;BME280;42800;53.928;27.662;2022-10-16T06:49:41;99209.84;;;12.72;100.00
56912;BME280;42800;53.928;27.662;2022-10-16T06:52:07;99203.16;;;13.10;100.00
56912;BME280;42800;53.928;27.662;2022-10-16T06:54:33;99235.91;;;12.82;100.00
56912;BME280;42800;53.928;27.662;2022-10-16T06:56:59;99226.16;;;13.36;100.00
56912;BME280;42800;53.928;27.662;2022-10-16T06:59:27;99262.91;;;14.20;100.00
56912;BME280;42800;53.928;27.662;2022-10-16T07:01:53;99303.31;;;14.64;100.00
56912;BME280;42800;53.928;27.662;2022-10-16T07:04:19;99341.13;;;14.53;100.00
56912;BME280;42800;53.928;27.662;2022-10-16T07:06:46;99277.66;;;13.32;100.00
56912;BME280;42800;53.928;27.662;2022-10-16T07:09:12;99279.41;;;13.06;100.00
56912;BME280;42800;53.928;27.662;2022-10-16T07:11:39;99296.31;;;14.04;100.00
56912;BME280;42800;53.928;27.662;2022-10-16T07:14:13;99287.06;;;13.79;100.00
56912;BME280;42800;53.928;27.662;2022-10-16T07:16:40;99282.09;;;13.03;100.00
56912;BME280;42800;53.928;27.662;2022-10-16T07:19:07;99269.13;;;13.44;100.00
56912;BME280;42800;53.928;27.662;2022-10-16T07:21:34;99281.59;;;13.31;100.00
56912;BME280;42800;53.928;27.662;2022-10-16T07:24:01;99263.59;;;13.00;100.00
56912;BME280;42800;53.928;27.662;2022-10-16T07:26:29;99276.78;;;12.80;100.00
56912;BME280;42800;53.928;27.662;2022-10-16T07:28:56;99221.44;;;12.92;100.00
56912;BME280;42800;53.928;27.662;2022-10-16T07:31:23;99296.41;;;14.26;100.00
56912;BME280;42800;53.928;27.662;2022-10-16T07:33:50;99279.66;;;13.35;100.00
56912;BME280;42800;53.928;27.662;2022-10-16T07:36:19;99273.75;;;13.88;100.00
56912;BME280;42800;53.928;27.662;2022-10-16T07:38:45;99259.56;;;12.90;100.00
56912;BME280;42800;53.928;27.662;2022-10-16T07:41:14;99220.78;;;12.28;100.00
56912;BME280;42800;53.928;27.662;2022-10-16T07:43:45;99151.53;;;12.52;100.00
56912;BME280;42800;53.928;27.662;2022-10-16T07:46:11;99177.78;;;12.46;100.00
56912;BME280;42800;53.928;27.662;2022-10-16T07:48:38;99158.34;;;12.28;100.00
56912;BME280;42800;53.928;27.662;2022-10-16T07:51:06;99141.75;;;12.58;100.00
56912;BME280;42800;53.928;27.662;2022-10-16T07:53:33;99160.63;;;12.56;100.00
56912;BME280;42800;53.928;27.662;2022-10-16T07:56:00;99159.13;;;12.66;100.00
56912;BME280;42800;53.928;27.662;2022-10-16T07:58:28;99163.47;;;12.67;100.00
56912;BME280;42800;53.928;27.662;2022-10-16T08:00:54;99207.78;;;13.47;100.00
56912;BME280;42800;53.928;27.662;2022-10-16T08:03:20;99246.16;;;13.81;100.00
56912;BME280;42800;53.928;27.662;2022-10-16T08:05:47;99289.50;;;13.84;100.00
56912;BME280;42800;53.928;27.662;2022-10-16T08:08:14;99339.84;;;14.43;100.00
56912;BME280;42800;53.928;27.662;2022-10-16T08:10:40;99363.88;;;15.51;100.00
56912;BME280;42800;53.928;27.662;2022-10-16T08:13:06;99354.91;;;14.53;100.00
56912;BME280;42800;53.928;27.662;2022-10-16T08:15:33;99332.09;;;14.63;100.00
56912;BME280;42800;53.928;27.662;2022-10-16T08:18:01;99308.28;;;13.71;100.00
56912;BME280;42800;53.928;27.662;2022-10-16T08:20:29;99279.50;;;14.27;100.00
56912;BME280;42800;53.928;27.662;2022-10-16T08:22:56;99270.00;;;14.18;100.00
56912;BME280;42800;53.928;27.662;2022-10-16T08:25:23;99252.88;;;13.83;100.00
56912;BME280;42800;53.928;27.662;2022-10-16T08:27:49;99267.28;;;14.32;100.00
56912;BME280;42800;53.928;27.662;2022-10-16T08:30:16;99288.78;;;14.78;100.00
56912;BME280;42800;53.928;27.662;2022-10-16T08:32:43;99266.06;;;14.26;100.00
56912;BME280;42800;53.928;27.662;2022-10-16T08:35:10;99266.44;;;14.13;100.00
56912;BME280;42800;53.928;27.662;2022-10-16T08:37:37;99253.25;;;14.62;100.00
56912;BME280;42800;53.928;27.662;2022-10-16T08:40:04;99239.34;;;14.33;100.00
56912;BME280;42800;53.928;27.662;2022-10-16T08:42:42;99274.16;;;14.70;100.00
56912;BME280;42800;53.928;27.662;2022-10-16T08:45:23;99213.59;;;13.97;100.00
56912;BME280;42800;53.928;27.662;2022-10-16T08:48:00;99195.00;;;13.83;100.00
56912;BME280;42800;53.928;27.662;2022-10-16T08:50:32;99182.22;;;13.50;100.00
56912;BME280;42800;53.928;27.662;2022-10-16T08:52:59;99192.84;;;14.39;100.00
56912;BME280;42800;53.928;27.662;2022-10-16T08:55:31;99201.53;;;14.41;100.00
56912;BME280;42800;53.928;27.662;2022-10-16T08:57:59;99211.91;;;14.73;100.00
56912;BME280;42800;53.928;27.662;2022-10-16T09:00:26;99273.06;;;15.32;100.00
56912;BME280;42800;53.928;27.662;2022-10-16T09:02:59;99282.59;;;14.22;100.00
56912;BME280;42800;53.928;27.662;2022-10-16T09:05:54;99229.13;;;14.48;100.00
56912;BME280;42800;53.928;27.662;2022-10-16T09:08:25;99221.25;;;14.43;100.00
56912;BME280;42800;53.928;27.662;2022-10-16T09:10:58;99217.78;;;14.64;100.00
56912;BME280;42800;53.928;27.662;2022-10-16T09:13:29;99228.59;;;14.10;100.00
56912;BME280;42800;53.928;27.662;2022-10-16T09:16:04;99220.03;;;14.30;100.00
56912;BME280;42800;53.928;27.662;2022-10-16T09:18:42;99236.34;;;14.74;100.00
56912;BME280;42800;53.928;27.662;2022-10-16T09:21:10;99256.44;;;14.86;100.00
56912;BME280;42800;53.928;27.662;2022-10-16T09:23:40;99210.56;;;14.31;100.00
56912;BME280;42800;53.928;27.662;2022-10-16T09:26:10;99228.06;;;14.85;100.00
56912;BME280;42800;53.928;27.662;2022-10-16T09:28:37;99233.53;;;14.56;100.00
56912;BME280;42800;53.928;27.662;2022-10-16T09:31:03;99235.59;;;15.31;100.00
56912;BME280;42800;53.928;27.662;2022-10-16T09:33:33;99250.16;;;14.81;100.00
56912;BME280;42800;53.928;27.662;2022-10-16T09:36:03;99202.75;;;14.47;100.00
56912;BME280;42800;53.928;27.662;2022-10-16T09:38:32;99217.00;;;14.71;100.00
56912;BME280;42800;53.928;27.662;2022-10-16T09:41:00;99249.38;;;14.85;100.00
56912;BME280;42800;53.928;27.662;2022-10-16T09:43:33;99215.75;;;14.43;100.00
56912;BME280;42800;53.928;27.662;2022-10-16T09:46:03;99177.06;;;14.25;100.00
56912;BME280;42800;53.928;27.662;2022-10-16T09:48:35;99203.53;;;14.48;100.00
56912;BME280;42800;53.928;27.662;2022-10-16T09:51:05;99187.97;;;13.93;100.00
56912;BME280;42800;53.928;27.662;2022-10-16T09:53:42;99171.63;;;13.59;100.00
56912;BME280;42800;53.928;27.662;2022-10-16T09:56:10;99157.59;;;13.82;100.00
56912;BME280;42800;53.928;27.662;2022-10-16T09:58:42;99154.06;;;13.85;100.00
56912;BME280;42800;53.928;27.662;2022-10-16T10:01:13;99153.31;;;13.99;100.00
56912;BME280;42800;53.928;27.662;2022-10-16T10:03:40;99153.41;;;14.21;100.00
56912;BME280;42800;53.928;27.662;2022-10-16T10:06:18;99140.41;;;14.18;100.00
56912;BME280;42800;53.928;27.662;2022-10-16T10:08:54;99167.66;;;14.37;100.00
56912;BME280;42800;53.928;27.662;2022-10-16T10:11:36;99177.59;;;14.59;100.00
56912;BME280;42800;53.928;27.662;2022-10-16T10:14:06;99173.06;;;14.08;100.00
56912;BME280;42800;53.928;27.662;2022-10-16T10:16:32;99146.72;;;14.29;100.00
56912;BME280;42800;53.928;27.662;2022-10-16T10:18:59;99153.38;;;14.10;100.00
56912;BME280;42800;53.928;27.662;2022-10-16T10:21:27;99153.53;;;14.56;100.00
56912;BME280;42800;53.928;27.662;2022-10-16T10:23:55;99174.38;;;14.47;100.00
56912;BME280;42800;53.928;27.662;2022-10-16T10:26:24;99148.34;;;14.41;100.00
56912;BME280;42800;53.928;27.662;2022-10-16T10:28:56;99153.09;;;14.44;100.00
56912;BME280;42800;53.928;27.662;2022-10-16T10:31:34;99162.22;;;14.80;100.00
56912;BME280;42800;53.928;27.662;2022-10-16T10:34:16;99186.94;;;14.26;100.00
56912;BME280;42800;53.928;27.662;2022-10-16T10:36:56;99135.38;;;14.63;100.00
56912;BME280;42800;53.928;27.662;2022-10-16T10:39:33;99181.94;;;14.71;100.00
56912;BME280;42800;53.928;27.662;2022-10-16T10:42:14;99182.72;;;14.82;100.00
56912;BME280;42800;53.928;27.662;2022-10-16T10:45:11;99199.66;;;14.63;100.00
56912;BME280;42800;53.928;27.662;2022-10-16T10:47:47;99213.84;;;14.69;100.00
56912;BME280;42800;53.928;27.662;2022-10-16T10:50:25;99207.53;;;14.65;100.00
56912;BME280;42800;53.928;27.662;2022-10-16T10:53:07;99186.50;;;14.17;100.00
56912;BME280;42800;53.928;27.662;2022-10-16T10:55:40;99179.81;;;14.32;100.00
56912;BME280;42800;53.928;27.662;2022-10-16T10:58:33;99188.94;;;14.47;100.00
56912;BME280;42800;53.928;27.662;2022-10-16T11:01:08;99172.06;;;14.59;100.00
56912;BME280;42800;53.928;27.662;2022-10-16T11:03:46;99178.78;;;14.73;100.00
56912;BME280;42800;53.928;27.662;2022-10-16T11:06:20;99161.34;;;14.40;100.00
56912;BME280;42800;53.928;27.662;2022-10-16T11:08:53;99174.06;;;14.88;100.00
56912;BME280;42800;53.928;27.662;2022-10-16T11:11:27;99173.16;;;14.37;100.00
56912;BME280;42800;53.928;27.662;2022-10-16T11:14:00;99164.59;;;14.74;100.00
56912;BME280;42800;53.928;27.662;2022-10-16T11:16:32;99189.00;;;14.54;100.00
56912;BME280;42800;53.928;27.662;2022-10-16T11:19:08;99185.06;;;14.63;100.00
56912;BME280;42800;53.928;27.662;2022-10-16T11:21:43;99172.84;;;14.64;100.00
56912;BME280;42800;53.928;27.662;2022-10-16T11:24:19;99177.22;;;14.86;100.00
56912;BME280;42800;53.928;27.662;2022-10-16T11:26:49;99153.97;;;14.73;100.00
56912;BME280;42800;53.928;27.662;2022-10-16T11:29:23;99195.34;;;14.80;100.00
56912;BME280;42800;53.928;27.662;2022-10-16T11:31:53;99218.22;;;15.05;100.00
56912;BME280;42800;53.928;27.662;2022-10-16T11:34:26;99224.88;;;14.69;100.00
56912;BME280;42800;53.928;27.662;2022-10-16T11:36:58;99216.66;;;15.15;100.00
56912;BME280;42800;53.928;27.662;2022-10-16T11:39:29;99231.66;;;15.46;100.00
56912;BME280;42800;53.928;27.662;2022-10-16T11:42:01;99234.03;;;15.26;100.00
56912;BME280;42800;53.928;27.662;2022-10-16T11:44:44;99246.25;;;15.40;100.00
56912;BME280;42800;53.928;27.662;2022-10-16T11:47:27;99250.19;;;15.64;100.00
56912;BME280;42800;53.928;27.662;2022-10-16T11:50:01;99248.22;;;15.25;100.00
56912;BME280;42800;53.928;27.662;2022-10-16T11:52:33;99245.03;;;15.01;100.00
56912;BME280;42800;53.928;27.662;2022-10-16T11:55:08;99221.41;;;15.07;100.00
56912;BME280;42800;53.928;27.662;2022-10-16T11:57:42;99235.13;;;14.72;100.00
56912;BME280;42800;53.928;27.662;2022-10-16T12:00:19;99208.00;;;15.10;100.00
56912;BME280;42800;53.928;27.662;2022-10-16T12:02:56;99205.59;;;15.19;100.00
56912;BME280;42800;53.928;27.662;2022-10-16T12:05:30;99216.66;;;15.19;100.00
56912;BME280;42800;53.928;27.662;2022-10-16T12:08:08;99221.78;;;15.20;100.00
56912;BME280;42800;53.928;27.662;2022-10-16T12:10:37;99227.69;;;15.22;100.00
56912;BME280;42800;53.928;27.662;2022-10-16T12:13:04;99217.47;;;15.23;100.00
56912;BME280;42800;53.928;27.662;2022-10-16T12:15:32;99227.69;;;14.83;100.00
56912;BME280;42800;53.928;27.662;2022-10-16T12:18:01;99215.09;;;15.18;100.00
56912;BME280;42800;53.928;27.662;2022-10-16T12:20:29;99237.56;;;14.98;100.00
56912;BME280;42800;53.928;27.662;2022-10-16T12:23:00;99244.25;;;14.97;100.00
56912;BME280;42800;53.928;27.662;2022-10-16T12:25:29;99241.09;;;14.99;100.00
56912;BME280;42800;53.928;27.662;2022-10-16T12:28:02;99245.06;;;15.37;100.00
56912;BME280;42800;53.928;27.662;2022-10-16T12:30:31;99252.16;;;15.45;100.00
56912;BME280;42800;53.928;27.662;2022-10-16T12:33:00;99228.50;;;15.23;100.00
56912;BME280;42800;53.928;27.662;2022-10-16T12:35:29;99252.13;;;14.99;100.00
56912;BME280;42800;53.928;27.662;2022-10-16T12:38:05;99216.25;;;15.06;100.00
56912;BME280;42800;53.928;27.662;2022-10-16T12:40:34;99216.25;;;14.95;100.00
56912;BME280;42800;53.928;27.662;2022-10-16T12:43:13;99219.41;;;15.01;100.00
56912;BME280;42800;53.928;27.662;2022-10-16T12:45:59;99213.03;;;14.61;100.00
56912;BME280;42800;53.928;27.662;2022-10-16T12:48:25;99204.31;;;14.48;100.00
56912;BME280;42800;53.928;27.662;2022-10-16T12:50:51;99179.53;;;14.59;100.00
56912;BME280;42800;53.928;27.662;2022-10-16T12:53:19;99196.50;;;14.68;100.00